createdAt,value
2023-12-31T00:02:06.159Z,100761.91
2023-12-31T00:04:32.701Z,100758.19
2023-12-31T00:06:59.114Z,100752.44
2023-12-31T00:09:25.551Z,100750.78
2023-12-31T00:11:51.966Z,100740.88
2023-12-31T00:14:18.413Z,100738.03
2023-12-31T00:16:44.911Z,100736.22
2023-12-31T00:19:11.720Z,100736.16
2023-12-31T00:21:43.109Z,100730.91
2023-12-31T00:24:09.979Z,100727.47
2023-12-31T00:26:36.416Z,100723.06
2023-12-31T00:29:02.801Z,100730.09
2023-12-31T00:31:29.242Z,100720.03
2023-12-31T00:33:58.655Z,100722.66
2023-12-31T00:36:26.097Z,100716.72
2023-12-31T00:38:54.468Z,100711.03
2023-12-31T00:41:21.144Z,100706.91
2023-12-31T00:43:47.639Z,100712.72
2023-12-31T00:46:14.954Z,100710.50
2023-12-31T00:48:41.578Z,100703.34
2023-12-31T00:51:08.130Z,100692.66
2023-12-31T00:53:35.261Z,100690.03
2023-12-31T00:56:01.783Z,100687.88
2023-12-31T00:58:28.272Z,100687.72
2023-12-31T01:00:54.713Z,100685.81
2023-12-31T01:03:21.307Z,100686.06
2023-12-31T01:05:47.799Z,100688.81
2023-12-31T01:08:14.508Z,100687.16
2023-12-31T01:10:40.962Z,100677.50
2023-12-31T01:13:07.514Z,100676.69
2023-12-31T01:15:33.923Z,100677.41
2023-12-31T01:18:00.448Z,100670.13
2023-12-31T01:20:26.876Z,100667.84
2023-12-31T01:22:53.351Z,100668.41
2023-12-31T01:25:19.807Z,100662.78
2023-12-31T01:27:46.279Z,100657.28
2023-12-31T01:30:13.446Z,100657.84
2023-12-31T01:32:39.947Z,100659.25
2023-12-31T01:35:06.549Z,100666.88
2023-12-31T01:37:32.970Z,100666.34
2023-12-31T01:39:59.387Z,100660.00
2023-12-31T01:42:25.828Z,100660.00
2023-12-31T01:44:52.280Z,100645.91
2023-12-31T01:47:19.632Z,100653.13
2023-12-31T01:49:46.322Z,100651.63
2023-12-31T01:52:13.871Z,100649.94
2023-12-31T01:54:41.327Z,100648.16
2023-12-31T01:57:08.234Z,100643.31
2023-12-31T01:59:34.997Z,100641.41
2023-12-31T02:02:01.466Z,100640.75
2023-12-31T02:04:34.737Z,100629.69
2023-12-31T02:07:02.119Z,100631.59
2023-12-31T02:09:29.076Z,100626.06
2023-12-31T02:11:56.348Z,100624.72
2023-12-31T02:14:22.813Z,100615.44
2023-12-31T02:16:49.242Z,100604.56
2023-12-31T02:19:15.768Z,100605.25
2023-12-31T02:21:42.400Z,100597.66
2023-12-31T02:24:14.167Z,100600.28
2023-12-31T02:26:41.245Z,100600.69
2023-12-31T02:29:07.713Z,100586.88
2023-12-31T02:31:35.293Z,100581.22
2023-12-31T02:34:01.860Z,100583.56
2023-12-31T02:36:28.512Z,100582.19
2023-12-31T02:38:54.908Z,100577.34
2023-12-31T02:41:21.583Z,100585.47
2023-12-31T02:43:48.461Z,100576.50
2023-12-31T02:46:15.139Z,100566.69
2023-12-31T02:51:08.936Z,100565.41
2023-12-31T02:53:35.315Z,100567.19
2023-12-31T02:56:01.869Z,100565.28
2023-12-31T02:58:28.508Z,100551.59
2023-12-31T03:00:55.006Z,100552.16
2023-12-31T03:03:21.454Z,100555.28
2023-12-31T03:05:47.910Z,100550.81
2023-12-31T03:08:14.367Z,100554.53
2023-12-31T03:10:40.968Z,100549.88
2023-12-31T03:13:07.547Z,100545.09
2023-12-31T03:15:33.985Z,100540.84
2023-12-31T03:18:00.547Z,100540.28
2023-12-31T03:20:26.993Z,100537.00
2023-12-31T03:22:53.671Z,100532.44
2023-12-31T03:25:20.242Z,100537.13
2023-12-31T03:27:46.868Z,100536.56
2023-12-31T03:30:13.934Z,100524.72
2023-12-31T03:32:41.434Z,100524.97
2023-12-31T03:35:08.178Z,100520.03
2023-12-31T03:37:34.717Z,100513.97
2023-12-31T03:40:01.289Z,100507.91
2023-12-31T03:42:27.854Z,100499.75
2023-12-31T03:44:54.322Z,100497.25
2023-12-31T03:47:20.889Z,100493.28
2023-12-31T03:49:47.332Z,100502.78
2023-12-31T03:52:13.844Z,100495.75
2023-12-31T03:54:42.879Z,100487.47
2023-12-31T03:57:09.577Z,100491.34
2023-12-31T03:59:36.053Z,100478.38
2023-12-31T04:02:02.669Z,100482.78
2023-12-31T04:04:30.597Z,100475.75
2023-12-31T04:06:57.412Z,100470.50
2023-12-31T04:09:23.817Z,100460.44
2023-12-31T04:11:50.232Z,100450.34
2023-12-31T04:14:16.665Z,100447.88
2023-12-31T04:16:43.223Z,100437.66
2023-12-31T04:19:10.461Z,100427.75
2023-12-31T04:21:36.905Z,100421.66
2023-12-31T04:24:03.496Z,100415.88
2023-12-31T04:26:29.872Z,100408.31
2023-12-31T04:28:56.388Z,100405.81
2023-12-31T04:31:23.258Z,100404.41
2023-12-31T04:33:49.710Z,100392.28
2023-12-31T04:36:16.099Z,100393.41
2023-12-31T04:38:42.587Z,100387.88
2023-12-31T04:41:08.955Z,100391.19
2023-12-31T04:43:35.370Z,100375.03
2023-12-31T04:46:05.656Z,100368.41
2023-12-31T04:48:32.073Z,100360.25
2023-12-31T04:50:58.470Z,100356.25
2023-12-31T04:53:24.901Z,100342.75
2023-12-31T04:55:51.377Z,100345.22
2023-12-31T04:58:18.820Z,100340.94
2023-12-31T05:00:45.314Z,100332.97
2023-12-31T05:03:11.763Z,100329.63
2023-12-31T05:05:38.836Z,100321.78
2023-12-31T05:08:05.373Z,100326.59
2023-12-31T05:10:31.786Z,100325.38
2023-12-31T05:12:59.528Z,100324.41
2023-12-31T05:15:26.194Z,100326.03
2023-12-31T05:17:52.659Z,100321.38
2023-12-31T05:20:19.215Z,100313.41
2023-12-31T05:22:45.677Z,100302.47
2023-12-31T05:25:12.220Z,100298.91
2023-12-31T05:27:38.651Z,100293.09
2023-12-31T05:30:06.835Z,100296.28
2023-12-31T05:32:33.548Z,100288.84
2023-12-31T05:34:59.983Z,100282.09
2023-12-31T05:37:26.402Z,100279.03
2023-12-31T05:39:52.970Z,100278.06
2023-12-31T05:42:19.473Z,100272.44
2023-12-31T05:44:45.881Z,100263.47
2023-12-31T05:47:12.585Z,100253.00
2023-12-31T05:49:39.096Z,100255.50
2023-12-31T05:52:06.811Z,100246.25
2023-12-31T05:54:33.249Z,100241.03
2023-12-31T05:56:59.690Z,100237.72
2023-12-31T05:59:26.081Z,100239.34
2023-12-31T06:01:52.536Z,100234.41
2023-12-31T06:04:19.236Z,100229.16
2023-12-31T06:06:45.676Z,100238.69
2023-12-31T06:09:13.045Z,100227.53
2023-12-31T06:11:39.651Z,100216.09
2023-12-31T06:14:06.748Z,100219.13
2023-12-31T06:16:33.219Z,100211.81
2023-12-31T06:18:59.678Z,100199.56
2023-12-31T06:21:26.121Z,100205.91
2023-12-31T06:23:52.558Z,100200.94
2023-12-31T06:26:18.970Z,100194.03
2023-12-31T06:28:45.421Z,100187.44
2023-12-31T06:31:12.076Z,100186.34
2023-12-31T06:33:38.613Z,100180.53
2023-12-31T06:36:05.341Z,100184.84
2023-12-31T06:38:31.753Z,100184.69
2023-12-31T06:40:58.250Z,100178.75
2023-12-31T06:43:24.707Z,100170.78
2023-12-31T06:45:51.148Z,100169.78
2023-12-31T06:48:17.775Z,100168.69
2023-12-31T06:50:44.230Z,100158.66
2023-12-31T06:53:10.694Z,100156.16
2023-12-31T06:55:37.146Z,100155.91
2023-12-31T06:58:03.677Z,100158.50
2023-12-31T07:00:30.083Z,100150.25
2023-12-31T07:02:56.699Z,100141.56
2023-12-31T07:05:23.174Z,100139.38
2023-12-31T07:07:49.669Z,100129.41
2023-12-31T07:10:16.200Z,100132.19
2023-12-31T07:12:42.688Z,100130.28
2023-12-31T07:15:10.259Z,100132.59
2023-12-31T07:20:05.486Z,100116.56
2023-12-31T07:22:32.981Z,100109.69
2023-12-31T07:25:01.250Z,100099.22
2023-12-31T07:27:28.093Z,100104.56
2023-12-31T07:29:54.482Z,100093.44
2023-12-31T07:32:21.583Z,100091.63
2023-12-31T07:34:48.122Z,100088.72
2023-12-31T07:37:15.284Z,100084.03
2023-12-31T07:39:42.607Z,100083.75
2023-12-31T07:42:09.104Z,100082.88
2023-12-31T07:44:35.518Z,100074.72
2023-12-31T07:47:03.949Z,100074.44
2023-12-31T07:49:31.508Z,100062.56
2023-12-31T07:51:58.076Z,100059.13
2023-12-31T07:54:26.721Z,100055.44
2023-12-31T07:56:53.408Z,100054.19
2023-12-31T07:59:19.893Z,100049.78
2023-12-31T08:01:46.324Z,100045.34
2023-12-31T08:04:12.753Z,100050.34
2023-12-31T08:06:40.652Z,100042.59
2023-12-31T08:09:08.261Z,100046.72
2023-12-31T08:11:34.763Z,100037.03
2023-12-31T08:14:01.329Z,100029.28
2023-12-31T08:16:27.805Z,100021.63
2023-12-31T08:18:54.261Z,100029.34
2023-12-31T08:21:20.712Z,100027.72
2023-12-31T08:23:48.252Z,100029.44
2023-12-31T08:26:15.036Z,100018.09
2023-12-31T08:28:41.552Z,100022.09
2023-12-31T08:31:14.446Z,100001.56
2023-12-31T08:33:40.886Z,100012.88
2023-12-31T08:36:07.730Z,100007.63
2023-12-31T08:38:34.297Z,100003.34
2023-12-31T08:41:00.825Z,100007.00
2023-12-31T08:43:28.339Z,99999.00
2023-12-31T08:45:54.996Z,99996.81
2023-12-31T08:48:21.968Z,99990.31
2023-12-31T08:50:48.701Z,99988.34
2023-12-31T08:53:15.094Z,99980.84
2023-12-31T08:55:41.746Z,99985.28
2023-12-31T08:58:08.182Z,99989.41
2023-12-31T09:00:34.643Z,99972.84
2023-12-31T09:03:01.134Z,99973.34
2023-12-31T09:05:27.637Z,99976.94
2023-12-31T09:07:54.152Z,99971.84
2023-12-31T09:10:20.717Z,99972.66
2023-12-31T09:12:48.430Z,99972.38
2023-12-31T09:15:14.955Z,99975.81
2023-12-31T09:17:41.677Z,99963.19
2023-12-31T09:20:09.798Z,99962.06
2023-12-31T09:22:37.072Z,99964.75
2023-12-31T09:25:07.352Z,99962.94
2023-12-31T09:27:34.025Z,99970.03
2023-12-31T09:30:00.494Z,99957.59
2023-12-31T09:32:27.110Z,99954.00
2023-12-31T09:34:53.660Z,99946.78
2023-12-31T09:37:20.451Z,99938.16
2023-12-31T09:39:47.938Z,99948.34
2023-12-31T09:42:18.997Z,99952.78
2023-12-31T09:44:45.680Z,99946.59
2023-12-31T09:47:13.210Z,99945.59
2023-12-31T09:49:43.388Z,99936.44
2023-12-31T09:52:10.427Z,99935.47
2023-12-31T09:54:42.145Z,99935.97
2023-12-31T09:57:13.000Z,99937.28
2023-12-31T09:59:43.341Z,99935.81
2023-12-31T10:02:18.412Z,99935.88
2023-12-31T10:04:45.954Z,99930.47
2023-12-31T10:07:13.673Z,99910.94
2023-12-31T10:09:43.491Z,99909.13
2023-12-31T10:12:10.196Z,99896.50
2023-12-31T10:14:36.632Z,99894.69
2023-12-31T10:17:08.744Z,99892.06
2023-12-31T10:19:35.611Z,99879.88
2023-12-31T10:22:06.002Z,99886.47
2023-12-31T10:24:33.075Z,99875.81
2023-12-31T10:27:04.596Z,99882.06
2023-12-31T10:29:31.040Z,99870.88
2023-12-31T10:31:57.731Z,99871.72
2023-12-31T10:34:24.547Z,99858.38
2023-12-31T10:37:02.282Z,99860.66
2023-12-31T10:39:30.479Z,99856.75
2023-12-31T10:42:04.978Z,99848.03
2023-12-31T10:44:38.806Z,99858.03
2023-12-31T10:47:07.452Z,99852.09
2023-12-31T10:49:35.678Z,99847.28
2023-12-31T10:52:04.919Z,99838.31
2023-12-31T10:54:44.290Z,99839.25
2023-12-31T10:57:11.712Z,99830.00
2023-12-31T10:59:41.250Z,99840.50
2023-12-31T11:02:15.675Z,99826.63
2023-12-31T11:04:45.314Z,99816.09
2023-12-31T11:07:15.411Z,99816.28
2023-12-31T11:09:44.251Z,99815.44
2023-12-31T11:12:12.177Z,99813.69
2023-12-31T11:14:44.073Z,99801.22
2023-12-31T11:17:40.164Z,99802.72
2023-12-31T11:20:31.609Z,99795.31
2023-12-31T11:23:12.455Z,99789.59
2023-12-31T11:25:40.096Z,99791.38
2023-12-31T11:28:07.489Z,99786.88
2023-12-31T11:30:59.924Z,99788.66
2023-12-31T11:33:28.862Z,99782.94
2023-12-31T11:36:00.865Z,99780.16
2023-12-31T11:38:28.215Z,99773.31
2023-12-31T11:40:57.640Z,99769.06
2023-12-31T11:43:24.558Z,99760.63
2023-12-31T11:45:52.087Z,99755.03
2023-12-31T11:48:23.245Z,99756.19
2023-12-31T11:50:51.084Z,99746.16
2023-12-31T11:53:17.597Z,99743.66
2023-12-31T11:55:44.134Z,99749.09
2023-12-31T11:58:11.192Z,99740.75
2023-12-31T12:00:39.192Z,99737.97
2023-12-31T12:03:09.155Z,99722.31
2023-12-31T12:05:35.574Z,99715.06
2023-12-31T12:08:04.546Z,99714.22
2023-12-31T12:10:31.340Z,99722.84
2023-12-31T12:13:01.408Z,99718.22
2023-12-31T12:15:34.961Z,99718.03
2023-12-31T12:18:01.524Z,99700.06
2023-12-31T12:20:28.083Z,99699.25
2023-12-31T12:22:54.755Z,99692.53
2023-12-31T12:25:21.989Z,99691.00
2023-12-31T12:27:48.487Z,99685.03
2023-12-31T12:30:15.822Z,99688.72
2023-12-31T12:32:48.341Z,99686.72
2023-12-31T12:35:15.268Z,99692.28
2023-12-31T12:37:43.091Z,99688.94
2023-12-31T12:40:15.988Z,99687.59
2023-12-31T12:42:46.396Z,99676.06
2023-12-31T12:45:13.139Z,99670.34
2023-12-31T12:47:42.242Z,99676.66
2023-12-31T12:50:09.287Z,99668.09
2023-12-31T12:52:35.805Z,99662.31
2023-12-31T12:55:02.317Z,99657.41
2023-12-31T12:57:28.837Z,99667.13
2023-12-31T12:59:55.261Z,99666.94
2023-12-31T13:02:21.939Z,99656.38
2023-12-31T13:04:48.508Z,99656.22
2023-12-31T13:07:15.911Z,99656.84
2023-12-31T13:09:42.502Z,99646.94
2023-12-31T13:12:09.548Z,99648.66
2023-12-31T13:14:36.277Z,99640.84
2023-12-31T13:17:03.670Z,99641.13
2023-12-31T13:19:30.227Z,99643.94
2023-12-31T13:21:56.755Z,99650.09
2023-12-31T13:24:23.167Z,99660.91
2023-12-31T13:26:49.550Z,99638.09
2023-12-31T13:29:16.108Z,99649.72
2023-12-31T13:31:42.566Z,99655.34
2023-12-31T13:34:10.478Z,99664.34
2023-12-31T13:36:37.119Z,99649.25
2023-12-31T13:39:06.680Z,99643.69
2023-12-31T13:41:33.323Z,99637.81
2023-12-31T13:43:59.847Z,99637.69
2023-12-31T13:46:26.391Z,99644.41
2023-12-31T13:48:53.002Z,99643.94
2023-12-31T13:51:20.966Z,99643.22
2023-12-31T13:53:47.554Z,99644.22
2023-12-31T13:56:14.086Z,99644.13
2023-12-31T13:58:40.554Z,99628.66
2023-12-31T14:01:07.106Z,99631.81
2023-12-31T14:03:33.990Z,99636.81
2023-12-31T14:06:00.506Z,99633.00
2023-12-31T14:08:26.952Z,99632.72
2023-12-31T14:10:53.639Z,99636.69
2023-12-31T14:13:20.271Z,99644.94
2023-12-31T14:15:46.746Z,99658.94
2023-12-31T14:18:13.426Z,99662.28
2023-12-31T14:20:39.928Z,99662.84
2023-12-31T14:23:06.963Z,99677.59
2023-12-31T14:25:33.729Z,99667.16
2023-12-31T14:28:00.271Z,99675.47
2023-12-31T14:30:26.731Z,99679.31
2023-12-31T14:32:53.275Z,99679.69
2023-12-31T14:35:19.805Z,99673.13
2023-12-31T14:37:46.310Z,99675.25
2023-12-31T14:40:12.944Z,99672.50
2023-12-31T14:42:39.716Z,99686.81
2023-12-31T14:45:07.294Z,99687.75
2023-12-31T14:47:34.213Z,99676.41
2023-12-31T14:50:00.809Z,99664.78
2023-12-31T14:52:27.445Z,99681.81
2023-12-31T14:54:53.912Z,99688.59
2023-12-31T14:57:20.474Z,99687.59
2023-12-31T14:59:46.863Z,99686.13
2023-12-31T15:02:23.932Z,99697.31
2023-12-31T15:05:00.613Z,99693.56
2023-12-31T15:07:33.588Z,99695.50
2023-12-31T15:09:59.990Z,99695.16
2023-12-31T15:12:26.550Z,99696.31
2023-12-31T15:14:54.033Z,99716.88
2023-12-31T15:17:20.455Z,99707.31
2023-12-31T15:19:46.921Z,99710.94
2023-12-31T15:22:13.550Z,99700.63
2023-12-31T15:24:39.954Z,99709.34
2023-12-31T15:27:06.367Z,99712.31
2023-12-31T15:29:32.807Z,99716.56
2023-12-31T15:31:59.284Z,99725.75
2023-12-31T15:34:27.040Z,99732.16
2023-12-31T15:36:53.654Z,99749.59
2023-12-31T15:39:20.602Z,99751.19
2023-12-31T15:41:47.375Z,99742.03
2023-12-31T15:44:15.010Z,99740.88
2023-12-31T15:46:41.907Z,99735.97
2023-12-31T15:49:08.787Z,99741.75
2023-12-31T15:51:35.467Z,99749.16
2023-12-31T15:54:01.935Z,99751.63
2023-12-31T15:56:29.728Z,99751.97
2023-12-31T15:58:58.609Z,99748.84
2023-12-31T16:01:25.147Z,99747.03
2023-12-31T16:03:51.566Z,99754.75
2023-12-31T16:06:18.035Z,99753.91
2023-12-31T16:08:44.507Z,99757.38
2023-12-31T16:11:11.167Z,99762.25
2023-12-31T16:13:38.317Z,99754.50
2023-12-31T16:16:07.493Z,99755.44
2023-12-31T16:18:35.239Z,99759.34
2023-12-31T16:21:02.359Z,99756.16
2023-12-31T16:23:28.767Z,99754.50
2023-12-31T16:25:56.227Z,99758.59
2023-12-31T16:28:22.717Z,99763.84
2023-12-31T16:30:49.316Z,99767.94
2023-12-31T16:33:15.896Z,99767.94
2023-12-31T16:35:42.411Z,99768.81
2023-12-31T16:38:09.059Z,99766.53
2023-12-31T16:40:35.630Z,99776.38
2023-12-31T16:43:05.971Z,99779.06
2023-12-31T16:45:32.382Z,99778.94
2023-12-31T16:48:01.775Z,99782.25
2023-12-31T16:50:29.808Z,99783.91
2023-12-31T16:52:56.257Z,99785.41
2023-12-31T16:55:22.778Z,99779.78
2023-12-31T16:57:49.349Z,99785.72
2023-12-31T17:00:16.086Z,99789.00
2023-12-31T17:02:42.497Z,99789.81
2023-12-31T17:05:10.218Z,99791.44
2023-12-31T17:07:36.775Z,99805.38
2023-12-31T17:10:06.171Z,99805.69
2023-12-31T17:12:33.276Z,99808.66
2023-12-31T17:14:59.790Z,99810.72
2023-12-31T17:17:26.264Z,99811.22
2023-12-31T17:19:52.755Z,99812.97
2023-12-31T17:22:19.220Z,99815.25
2023-12-31T17:24:47.023Z,99814.44
2023-12-31T17:27:14.193Z,99821.28
2023-12-31T17:29:40.625Z,99816.03
2023-12-31T17:32:08.963Z,99820.78
2023-12-31T17:34:38.721Z,99821.16
2023-12-31T17:37:07.073Z,99825.31
2023-12-31T17:39:33.554Z,99829.06
2023-12-31T17:42:00.250Z,99822.38
2023-12-31T17:44:27.003Z,99831.38
2023-12-31T17:46:53.599Z,99823.47
2023-12-31T17:49:20.139Z,99828.41
2023-12-31T17:51:46.746Z,99828.81
2023-12-31T17:54:13.270Z,99834.19
2023-12-31T17:56:40.929Z,99830.41
2023-12-31T17:59:07.453Z,99838.75
2023-12-31T18:01:34.510Z,99843.81
2023-12-31T18:04:00.926Z,99838.59
2023-12-31T18:06:27.399Z,99837.41
2023-12-31T18:08:53.977Z,99835.38
2023-12-31T18:11:20.460Z,99836.81
2023-12-31T18:13:46.974Z,99833.16
2023-12-31T18:16:13.446Z,99834.66
2023-12-31T18:18:40.957Z,99840.69
2023-12-31T18:21:08.079Z,99838.19
2023-12-31T18:23:34.475Z,99840.72
2023-12-31T18:26:00.885Z,99830.09
2023-12-31T18:28:27.403Z,99833.66
2023-12-31T18:30:53.909Z,99833.81
2023-12-31T18:33:20.460Z,99834.13
2023-12-31T18:35:46.910Z,99837.50
2023-12-31T18:38:13.437Z,99836.16
2023-12-31T18:40:40.476Z,99841.09
2023-12-31T18:43:07.108Z,99843.16
2023-12-31T18:45:33.701Z,99854.69
2023-12-31T18:48:00.539Z,99861.19
2023-12-31T18:50:27.051Z,99854.69
2023-12-31T18:52:53.488Z,99853.25
2023-12-31T18:55:19.929Z,99856.94
2023-12-31T18:57:46.395Z,99861.44
2023-12-31T19:00:15.771Z,99846.25
2023-12-31T19:02:42.291Z,99838.84
2023-12-31T19:05:08.886Z,99850.75
2023-12-31T19:07:35.687Z,99850.81
2023-12-31T19:10:02.239Z,99853.31
2023-12-31T19:12:28.699Z,99860.06
2023-12-31T19:15:00.217Z,99864.03
2023-12-31T19:17:27.159Z,99853.06
2023-12-31T19:19:53.786Z,99848.03
2023-12-31T19:22:20.275Z,99853.63
2023-12-31T19:24:46.773Z,99861.97
2023-12-31T19:27:13.186Z,99850.91
2023-12-31T19:29:39.616Z,99860.75
2023-12-31T19:32:07.046Z,99853.44
2023-12-31T19:34:34.817Z,99858.31
2023-12-31T19:37:01.489Z,99855.34
2023-12-31T19:39:28.046Z,99860.19
2023-12-31T19:41:54.465Z,99860.00
2023-12-31T19:44:32.426Z,99863.78
2023-12-31T19:47:02.767Z,99860.72
2023-12-31T19:49:29.615Z,99854.03
2023-12-31T19:51:58.753Z,99854.41
2023-12-31T19:54:25.793Z,99862.94
2023-12-31T19:56:52.372Z,99852.06
2023-12-31T19:59:19.955Z,99856.31
2023-12-31T20:01:46.561Z,99859.63
2023-12-31T20:04:13.317Z,99863.28
2023-12-31T20:06:40.227Z,99858.69
2023-12-31T20:09:07.872Z,99868.09
2023-12-31T20:11:34.530Z,99872.06
2023-12-31T20:14:00.953Z,99868.63
2023-12-31T20:16:28.109Z,99872.53
2023-12-31T20:18:54.637Z,99870.59
2023-12-31T20:21:21.168Z,99878.00
2023-12-31T20:23:47.652Z,99873.09
2023-12-31T20:26:14.205Z,99870.00
2023-12-31T20:28:41.469Z,99872.00
2023-12-31T20:31:08.118Z,99876.06
2023-12-31T20:33:34.571Z,99867.16
2023-12-31T20:36:05.982Z,99872.97
2023-12-31T20:38:33.028Z,99871.16
2023-12-31T20:40:59.466Z,99869.31
2023-12-31T20:43:26.004Z,99872.47
2023-12-31T20:45:54.877Z,99876.38
2023-12-31T20:48:21.543Z,99878.69
2023-12-31T20:50:48.021Z,99881.63
2023-12-31T20:53:14.582Z,99878.44
2023-12-31T20:55:41.152Z,99881.22
2023-12-31T20:58:08.253Z,99884.16
2023-12-31T21:00:34.981Z,99883.47
2023-12-31T21:03:01.480Z,99880.81
2023-12-31T21:05:27.949Z,99879.03
2023-12-31T21:07:54.473Z,99870.25
2023-12-31T21:10:20.904Z,99877.16
2023-12-31T21:12:47.304Z,99876.16
2023-12-31T21:15:13.724Z,99872.94
2023-12-31T21:17:40.224Z,99870.16
2023-12-31T21:20:07.444Z,99864.06
2023-12-31T21:22:33.951Z,99862.81
2023-12-31T21:25:00.582Z,99861.31
2023-12-31T21:27:26.963Z,99883.91
2023-12-31T21:29:53.466Z,99863.69
2023-12-31T21:32:19.922Z,99869.69
2023-12-31T21:34:46.502Z,99862.34
2023-12-31T21:37:12.965Z,99865.47
2023-12-31T21:39:39.518Z,99865.28
2023-12-31T21:42:05.982Z,99865.44
2023-12-31T21:44:33.941Z,99858.03
2023-12-31T21:47:00.949Z,99859.00
2023-12-31T21:49:27.578Z,99860.34
2023-12-31T21:51:55.432Z,99862.56
2023-12-31T21:54:21.918Z,99859.56
2023-12-31T21:57:00.373Z,99858.22
2023-12-31T21:59:29.205Z,99858.22
2023-12-31T22:01:55.636Z,99860.03
2023-12-31T22:04:22.988Z,99863.00
2023-12-31T22:06:49.412Z,99853.56
2023-12-31T22:09:15.809Z,99859.94
2023-12-31T22:11:43.887Z,99861.09
2023-12-31T22:14:10.605Z,99856.88
2023-12-31T22:16:37.104Z,99858.91
2023-12-31T22:19:03.795Z,99859.13
2023-12-31T22:21:30.416Z,99855.06
2023-12-31T22:23:56.852Z,99860.03
2023-12-31T22:26:23.485Z,99859.03
2023-12-31T22:28:49.888Z,99852.63
2023-12-31T22:31:16.326Z,99849.31
2023-12-31T22:33:42.844Z,99851.94
2023-12-31T22:36:09.402Z,99853.88
2023-12-31T22:38:35.783Z,99849.91
2023-12-31T22:41:08.785Z,99854.16
2023-12-31T22:43:35.359Z,99854.38
2023-12-31T22:46:02.186Z,99857.09
2023-12-31T22:48:29.172Z,99850.94
2023-12-31T22:50:55.811Z,99856.63
2023-12-31T22:53:22.903Z,99846.97
2023-12-31T22:55:49.538Z,99852.09
2023-12-31T22:58:16.123Z,99857.50
2023-12-31T23:00:42.811Z,99857.66
2023-12-31T23:03:09.525Z,99861.09
2023-12-31T23:05:35.983Z,99857.81
2023-12-31T23:08:02.702Z,99857.22
2023-12-31T23:10:30.714Z,99854.06
2023-12-31T23:12:57.610Z,99853.56
2023-12-31T23:15:27.336Z,99857.97
2023-12-31T23:17:54.438Z,99855.97
2023-12-31T23:20:21.393Z,99847.56
2023-12-31T23:22:47.834Z,99852.63
2023-12-31T23:25:14.330Z,99846.69
2023-12-31T23:27:41.139Z,99848.00
2023-12-31T23:30:08.737Z,99839.91
2023-12-31T23:32:35.405Z,99842.53
2023-12-31T23:35:02.019Z,99841.22
2023-12-31T23:37:28.978Z,99842.72
2023-12-31T23:39:55.669Z,99840.72
2023-12-31T23:42:22.118Z,99841.59
2023-12-31T23:44:48.583Z,99842.66
2023-12-31T23:47:15.035Z,99842.19
2023-12-31T23:49:41.495Z,99842.75
2023-12-31T23:52:08.060Z,99836.88
2023-12-31T23:54:34.654Z,99834.97
2023-12-31T23:57:01.074Z,99846.13
2023-12-31T23:59:27.558Z,99839.41
